Huvudsida
METAR-TAF:

METAR-TAF

Flygplatser :

Zvartnots internationella flygplats

Jerevan, Armenien

latitud: 40-08-50N, longitud: 044-23-45E, höjd: 865 m

Aktuellt väderrapport

Denna rapport gjordes för 24 minuter sedan, klockan 03:30 UTC
Vind 1 kt från väst/nordväst
Temperatur -6°C
Fuktighet 86%
Tryck 1024 hPa
Sikt: 3500 m
fuktdis

METAR: UDYZ 200330Z 30001KT 3500 BR NSC M06/M08 Q1024 R09/010070 NOSIG

Tid: 07:54 (03:54 UTC)

Väderprognos

Denna rapport gjordes för 10 timmar och 48 minuter sedan, klockan 17:06 UTC
Prognos gäller från 19 kl. 18 UTC till 20 kl. 18 UTC
Vind 6 kt från nordost
Sikt: 6000 m
Temporärt
från 20 kl. 00 UTC till 20 kl. 09 UTC
Sikt: 2300 m
fuktdis

TAF: UDYZ 191706Z 1918/2018 04006KT 6000 NSC TEMPO 2000/2009 2300 BR

Aktuella väderrapporter och prognoser från 4000 flygplatser (METAR- och TAF-rapporter).

De tillgängliga stationerna syns som gula och röda prickar på kartan.

För musen över prickarna för att se namnen på stationerna.

Klicka sedan för att få väderrapporter och prognoser.

För att ändra kartan: Klicka på de gröna knapparna med ett svart kors på för att zooma in; den gröna knappen med ett streck på för att zooma ut; eller på de gröna pilarna för angränsande kartor.


METAR-TAF: